Como, Mississippi
Current Conditions -  °F | °C
As of 9:35 PM on Sunday 21 Dec 2014 (Local Time) from KUOX Reporting Station
Clear Clear  
Wind Chill: 40°   Ceiling: Unl
Heat Index: 45°   Visibility: 10mi
Dew Point: 39°   Wind: 8mph
Humidity: 81%   Direction: 140°SE
Pressure: 29.99"   Gusts: NA
Location:  34.51°N, 89.94°W
Report Text: KUOX 220335Z AUTO 14007KT 10SM CLR 07/04 A2999 RMK AO2 PWINO PNO
Loading
Personal Weather Stations






























Interactive Weather Map New forecast layout! Learn more

10-Day Weather Forecast

Advertisements
Track Severe Weather on mobile